Weather History for K0VG - October, 2012

Change the Weather History Date:

Tuesday, October 30, 2012

  Actual Average (KLOZ) Record (KLOZ)
Temperature  
Mean Temperature 36 °F 53 °F  
Max Temperature 37 °F 65 °F 80 °F (1971)
Min Temperature 35 °F 41 °F 24 °F (1963)
Degree Days  
Heating Degree Days 29 12  
Month to date heating degree days 248  
Since 1 July heating degree days 295  
Cooling Degree Days 0 0  
Month to date cooling degree days 17  
Moisture  
Dew Point 34 °F    
Average Humidity 91    
Maximum Humidity 100    
Minimum Humidity 81    
Precipitation  
Precipitation 0.19 in 0.10 in 0.90 in (1976)
Month to date precipitation 2.91  
Sea Level Pressure  
Sea Level Pressure 29.65 in    
Wind  
Wind Speed 8 mph (WSW)    
Max Wind Speed 14 mph    
Max Gust Speed 17 mph    
Visibility 6 miles    
Events Rain    
T = Trace of Precipitation, MM = Missing Value Source: NWS Daily Summary

Daily Weather History Graph

Daily Weather History Graph

Search for Another Location

Airport or City:

Trip Planner

Search our weather history database for the weather conditions in past years. The results will help you decide how hot, cold, wet, or windy it might be!

Date:

Astronomy

Oct. 30, 2012 Rise Set
Actual Time 7:54 AM EDT 6:37 PM EDT
Civil Twilight 7:28 AM EDT 7:04 PM EDT
Nautical Twilight 6:57 AM EDT 7:34 PM EDT
Astronomical Twilight 6:27 AM EDT 8:04 PM EDT
Moon 7:08 PM EDT (10/30) 8:38 AM EDT (10/30)
Length of Visible Light 11h 36m
Length of Day
10h 42m
Full, 99% of the Moon is Illuminated
Oct 30
Full
Nov 6
Last Quarter
Nov 13
New
Nov 20
First Quarter
Nov 28
Full

Hourly Weather History & Observations

Time (EDT) Temp. Windchill Dew Point Humidity Pressure Visibility Wind Dir Wind Speed Gust Speed Precip Events Conditions
12:15 AM 35.6 °F 31.7 °F 32.0 °F 87% 29.71 in 6.0 mi West 4.6 mph - N/A Rain Light Rain
12:35 AM 35.6 °F 29.9 °F 32.0 °F 87% 29.70 in 6.0 mi SW 6.9 mph - N/A Rain Light Rain
12:55 AM 35.6 °F 31.7 °F 32.0 °F 87% 29.69 in 5.0 mi WSW 4.6 mph - N/A Rain Light Rain
1:15 AM 35.6 °F 29.9 °F 32.0 °F 87% 29.68 in 6.0 mi WSW 6.9 mph - N/A Rain Light Rain
1:35 AM 35.6 °F 30.7 °F 32.0 °F 87% 29.67 in 7.0 mi SW 5.8 mph - N/A Rain Light Rain
1:55 AM 35.6 °F 29.9 °F 32.0 °F 87% 29.66 in 7.0 mi SW 6.9 mph - N/A Rain Light Rain
2:15 AM 35.6 °F 29.2 °F 32.0 °F 87% 29.65 in 7.0 mi WSW 8.1 mph - N/A Rain Light Rain
2:35 AM 35.6 °F 29.2 °F 32.0 °F 87% 29.64 in 5.0 mi WSW 8.1 mph - N/A Rain Light Rain
2:55 AM 35.6 °F 29.2 °F 32.0 °F 87% 29.63 in 4.0 mi WSW 8.1 mph - 0.01 in Rain Light Rain
3:15 AM 35.6 °F 29.2 °F 32.0 °F 87% 29.62 in 5.0 mi WSW 8.1 mph - N/A Rain Light Rain
3:35 AM 35.6 °F 29.9 °F 32.0 °F 87% 29.61 in 8.0 mi WSW 6.9 mph - N/A Rain Light Rain
3:55 AM 35.6 °F 29.2 °F 32.0 °F 87% 29.60 in 5.0 mi WSW 8.1 mph - N/A Rain Light Rain
4:15 AM 35.6 °F 29.2 °F 32.0 °F 87% 29.59 in 5.0 mi WSW 8.1 mph - N/A Rain Light Rain
4:35 AM 35.6 °F 28.6 °F 32.0 °F 87% 29.59 in 5.0 mi West 9.2 mph - 0.01 in Rain Light Rain
4:55 AM 35.6 °F 29.2 °F 32.0 °F 87% 29.58 in 6.0 mi WSW 8.1 mph - 0.01 in Rain Light Rain
5:15 AM 37.4 °F 31.4 °F 33.8 °F 87% 29.58 in 7.0 mi West 8.1 mph - N/A Rain Light Rain
5:35 AM 37.4 °F 30.8 °F 32.0 °F 81% 29.58 in 6.0 mi West 9.2 mph - N/A Rain Light Rain
5:55 AM 35.6 °F 27.5 °F 32.0 °F 87% 29.58 in 6.0 mi West 11.5 mph - 0.01 in Rain Light Rain
6:15 AM 35.6 °F 29.2 °F 32.0 °F 87% 29.59 in 5.0 mi West 8.1 mph - N/A Rain Light Rain
6:35 AM 35.6 °F 29.2 °F 32.0 °F 87% 29.59 in 5.0 mi WSW 8.1 mph - 0.01 in Rain Light Rain
6:55 AM 35.6 °F 28.6 °F 32.0 °F 87% 29.59 in 5.0 mi WSW 9.2 mph - 0.01 in Rain Light Rain
7:15 AM 35.6 °F 28.6 °F 32.0 °F 87% 29.59 in 7.0 mi West 9.2 mph - N/A Rain Light Rain
7:55 AM 35.6 °F 29.2 °F 32.0 °F 87% 29.60 in 5.0 mi WSW 8.1 mph - 0.01 in Rain Light Rain
8:15 AM 35.6 °F 28.6 °F 32.0 °F 87% 29.60 in 5.0 mi WSW 9.2 mph - N/A Rain Light Rain
8:35 AM 35.6 °F 29.2 °F 33.8 °F 93% 29.61 in 3.0 mi WSW 8.1 mph - 0.01 in Rain Light Rain
8:55 AM 35.6 °F 29.2 °F 33.8 °F 93% 29.61 in 3.0 mi WSW 8.1 mph - 0.02 in Rain Light Rain
9:15 AM 35.6 °F 29.2 °F 33.8 °F 93% 29.61 in 4.0 mi WSW 8.1 mph - N/A Rain Light Rain
9:35 AM 35.6 °F 28.0 °F 33.8 °F 93% 29.61 in 3.0 mi WSW 10.4 mph - N/A Rain Light Rain
9:55 AM 35.6 °F 28.0 °F 33.8 °F 93% 29.62 in 5.0 mi WSW 10.4 mph - 0.01 in Rain Light Rain
10:15 AM 35.6 °F 28.6 °F 33.8 °F 93% 29.62 in 4.0 mi WSW 9.2 mph - N/A Rain Light Rain
10:35 AM 35.6 °F 28.0 °F 33.8 °F 93% 29.61 in 5.0 mi WSW 10.4 mph - N/A Rain Light Rain
10:55 AM 37.4 °F 31.4 °F 35.6 °F 93% 29.61 in 8.0 mi WSW 8.1 mph - N/A   Mostly Cloudy
11:15 AM 37.4 °F 30.3 °F 33.8 °F 87% 29.61 in 8.0 mi WSW 10.4 mph - N/A Rain Light Rain
11:35 AM 37.4 °F 29.8 °F 35.6 °F 93% 29.61 in 10.0 mi WSW 11.5 mph 17.3 mph N/A   Mostly Cloudy
11:55 AM 37.4 °F 28.9 °F 33.8 °F 87% 29.61 in 7.0 mi WSW 13.8 mph - N/A Rain Light Rain
12:15 PM 37.4 °F 29.8 °F 33.8 °F 87% 29.61 in 6.0 mi WSW 11.5 mph - N/A Rain Light Rain
12:35 PM 37.4 °F 30.3 °F 35.6 °F 93% 29.61 in 7.0 mi WSW 10.4 mph 16.1 mph N/A Rain Light Rain
12:55 PM 37.4 °F 30.3 °F 35.6 °F 93% 29.61 in 5.0 mi WSW 10.4 mph - N/A Rain Light Rain
1:15 PM 37.4 °F 29.8 °F 35.6 °F 93% 29.61 in 5.0 mi WSW 11.5 mph - N/A Rain Light Rain
1:35 PM 37.4 °F 29.8 °F 35.6 °F 93% 29.61 in 5.0 mi WSW 11.5 mph - N/A Rain Light Rain
1:55 PM 37.4 °F 29.3 °F 35.6 °F 93% 29.61 in 5.0 mi WSW 12.7 mph - 0.01 in Rain Light Rain
2:15 PM 37.4 °F 29.8 °F 35.6 °F 93% 29.61 in 4.0 mi WSW 11.5 mph 16.1 mph N/A Rain Light Rain
2:35 PM 37.4 °F 29.3 °F 35.6 °F 93% 29.60 in 5.0 mi West 12.7 mph - N/A Rain Light Rain
2:55 PM 37.4 °F 29.3 °F 35.6 °F 93% 29.61 in 3.0 mi WSW 12.7 mph 17.3 mph 0.01 in Rain Light Rain
3:15 PM 37.4 °F 29.3 °F 35.6 °F 93% 29.61 in 4.0 mi WSW 12.7 mph - N/A Rain Light Rain
3:35 PM 37.4 °F 29.8 °F 35.6 °F 93% 29.62 in 3.0 mi WSW 11.5 mph - 0.01 in Rain Light Rain
3:55 PM 37.4 °F 30.3 °F 35.6 °F 93% 29.63 in 4.0 mi WSW 10.4 mph - 0.01 in Rain Light Rain
4:15 PM 37.4 °F 32.1 °F 35.6 °F 93% 29.64 in 3.0 mi WSW 6.9 mph - N/A Rain Light Rain
4:35 PM 37.4 °F 31.4 °F 35.6 °F 93% 29.64 in 3.0 mi WSW 8.1 mph - 0.02 in Rain Light Rain
4:55 PM 37.4 °F 31.4 °F 35.6 °F 93% 29.65 in 5.0 mi WSW 8.1 mph - 0.02 in Rain Light Rain
5:15 PM 37.4 °F 31.4 °F 35.6 °F 93% 29.65 in 6.0 mi WSW 8.1 mph - N/A Rain Light Rain
5:35 PM 37.4 °F 30.8 °F 35.6 °F 93% 29.66 in 5.0 mi WSW 9.2 mph - 0.01 in Rain Light Rain
5:55 PM 37.4 °F 29.8 °F 35.6 °F 93% 29.67 in 5.0 mi SW 11.5 mph - 0.01 in Rain Light Rain
6:15 PM 35.6 °F 28.6 °F 33.8 °F 93% 29.68 in 5.0 mi SW 9.2 mph - N/A Rain Light Rain
6:35 PM 35.6 °F 28.6 °F 33.8 °F 93% 29.69 in 7.0 mi WSW 9.2 mph - 0.01 in Rain Light Rain
6:55 PM 35.6 °F 28.0 °F 33.8 °F 93% 29.70 in 7.0 mi WSW 10.4 mph - 0.02 in Rain Light Rain
7:15 PM 35.6 °F 29.9 °F 33.8 °F 93% 29.71 in 7.0 mi SW 6.9 mph - N/A Rain Light Rain
7:35 PM 35.6 °F 29.2 °F 33.8 °F 93% 29.72 in 6.0 mi WSW 8.1 mph - 0.01 in Rain Light Rain
7:55 PM 35.6 °F 29.2 °F 33.8 °F 93% 29.73 in 7.0 mi WSW 8.1 mph - 0.02 in Rain Light Rain
8:15 PM 35.6 °F 29.9 °F 35.6 °F 100% 29.73 in 8.0 mi WSW 6.9 mph - N/A Rain Light Rain
8:35 PM 37.4 °F 32.1 °F 35.6 °F 93% 29.74 in 9.0 mi SW 6.9 mph - N/A Rain Light Rain
8:55 PM 37.4 °F 31.4 °F 35.6 °F 93% 29.74 in 9.0 mi SW 8.1 mph - N/A Rain Light Rain
9:15 PM 37.4 °F 30.8 °F 35.6 °F 93% 29.75 in 7.0 mi WSW 9.2 mph - N/A Rain Light Rain
9:35 PM 37.4 °F 32.1 °F 35.6 °F 93% 29.76 in 7.0 mi WSW 6.9 mph - 0.01 in Rain Light Rain
9:55 PM 37.4 °F 32.1 °F 35.6 °F 93% 29.76 in 8.0 mi WSW 6.9 mph - 0.01 in Rain Light Rain
10:15 PM 37.4 °F 31.4 °F 35.6 °F 93% 29.76 in 9.0 mi WSW 8.1 mph - N/A Rain Light Rain
10:35 PM 37.4 °F 31.4 °F 35.6 °F 93% 29.76 in 8.0 mi WSW 8.1 mph - N/A Rain Light Rain
10:55 PM 37.4 °F 30.8 °F 35.6 °F 93% 29.76 in 6.0 mi WSW 9.2 mph - N/A Rain Light Rain
11:35 PM 37.4 °F 31.4 °F 35.6 °F 93% 29.76 in 7.0 mi WSW 8.1 mph - N/A   Unknown
11:55 PM 37.4 °F 32.1 °F 35.6 °F 93% 29.76 in 8.0 mi WSW 6.9 mph - N/A   Overcast